BOE1Z CYEG-KBFI
Flight info
| Callsign | BOE1Z |
|---|---|
| Flight time | 1h 24m |
| Altitude | 36000 |
| Route | GABET1 ANDIE Q860 MERYT FOLDY J503 CASCD CREEB GLASR3 |
| Aircraft | B744/H-SDE3FGHIM1M2RWXY/LB1 |
Departure
| Time | 2026-05-05 23:26 |
|---|---|
| Airport | Edmonton International Airport (CYEG) |
Arrival
| Time | 2026-05-06 00:50 |
|---|---|
| Airport | King County International Airport - Boeing Field (KBFI) |
| Time | Latitude | Longitude | Altitude | Speed | Heading |
|---|---|---|---|---|---|
| 2026-05-05 23:05 | 53.30428 | -113.58181 | 2348 ft | 0 kts | 44° |
| 2026-05-05 23:16 | 53.30423 | -113.58191 | 2348 ft | 2 kts | 59° |
| 2026-05-05 23:16 | 53.30415 | -113.58212 | 2347 ft | 2 kts | 47° |
| 2026-05-05 23:16 | 53.30408 | -113.58225 | 2347 ft | 1 kts | 42° |
| 2026-05-05 23:17 | 53.30397 | -113.58239 | 2347 ft | 2 kts | 30° |
| 2026-05-05 23:17 | 53.30383 | -113.58250 | 2347 ft | 2 kts | 13° |
| 2026-05-05 23:17 | 53.30368 | -113.58253 | 2346 ft | 2 kts | 358° |
| 2026-05-05 23:17 | 53.30353 | -113.58250 | 2347 ft | 2 kts | 343° |
| 2026-05-05 23:18 | 53.30340 | -113.58241 | 2347 ft | 2 kts | 329° |
| 2026-05-05 23:18 | 53.30329 | -113.58228 | 2347 ft | 0 kts | 315° |
| 2026-05-05 23:18 | 53.30326 | -113.58222 | 2347 ft | 0 kts | 314° |
| 2026-05-05 23:21 | 53.30331 | -113.58231 | 2347 ft | 1 kts | 314° |
| 2026-05-05 23:21 | 53.30338 | -113.58244 | 2347 ft | 1 kts | 314° |
| 2026-05-05 23:21 | 53.30350 | -113.58263 | 2346 ft | 6 kts | 316° |
| 2026-05-05 23:21 | 53.30416 | -113.58370 | 2344 ft | 15 kts | 314° |
| 2026-05-05 23:22 | 53.30495 | -113.58499 | 2342 ft | 15 kts | 314° |
| 2026-05-05 23:22 | 53.30574 | -113.58632 | 2336 ft | 16 kts | 313° |
| 2026-05-05 23:22 | 53.30582 | -113.58778 | 2333 ft | 13 kts | 227° |
| 2026-05-05 23:22 | 53.30525 | -113.58893 | 2330 ft | 10 kts | 266° |
| 2026-05-05 23:23 | 53.30569 | -113.58994 | 2327 ft | 10 kts | 316° |
| 2026-05-05 23:23 | 53.30620 | -113.59077 | 2326 ft | 9 kts | 315° |
| 2026-05-05 23:23 | 53.30664 | -113.59153 | 2325 ft | 8 kts | 313° |
| 2026-05-05 23:23 | 53.30701 | -113.59216 | 2325 ft | 8 kts | 314° |
| 2026-05-05 23:24 | 53.30748 | -113.59295 | 2324 ft | 11 kts | 315° |
| 2026-05-05 23:24 | 53.30807 | -113.59388 | 2322 ft | 5 kts | 316° |
| 2026-05-05 23:24 | 53.30817 | -113.59403 | 2322 ft | 0 kts | 316° |
| 2026-05-05 23:24 | 53.30822 | -113.59411 | 2322 ft | 2 kts | 316° |
| 2026-05-05 23:25 | 53.30859 | -113.59473 | 2322 ft | 17 kts | 314° |
| 2026-05-05 23:25 | 53.30964 | -113.59534 | 2319 ft | 23 kts | 31° |
| 2026-05-05 23:25 | 53.31350 | -113.59076 | 2319 ft | 114 kts | 33° |
| 2026-05-05 23:25 | 53.32241 | -113.58046 | 2386 ft | 188 kts | 33° |
| 2026-05-05 23:26 | 53.33332 | -113.56878 | 3231 ft | 185 kts | 34° |
| 2026-05-05 23:26 | 53.34404 | -113.55683 | 3815 ft | 188 kts | 33° |
| 2026-05-05 23:26 | 53.35567 | -113.54378 | 4213 ft | 216 kts | 33° |
| 2026-05-05 23:26 | 53.36847 | -113.52874 | 4734 ft | 234 kts | 37° |
| 2026-05-05 23:27 | 53.38189 | -113.51107 | 5143 ft | 254 kts | 37° |
| 2026-05-05 23:27 | 53.39601 | -113.49379 | 5767 ft | 253 kts | 33° |
| 2026-05-05 23:27 | 53.41040 | -113.47720 | 5917 ft | 254 kts | 34° |
| 2026-05-05 23:27 | 53.42497 | -113.46008 | 5968 ft | 261 kts | 34° |
| 2026-05-05 23:28 | 53.43998 | -113.44257 | 5991 ft | 265 kts | 34° |
| 2026-05-05 23:28 | 53.45526 | -113.42469 | 6011 ft | 266 kts | 34° |
| 2026-05-05 23:28 | 53.47013 | -113.40723 | 6170 ft | 260 kts | 33° |
| 2026-05-05 23:28 | 53.48514 | -113.39063 | 6755 ft | 261 kts | 32° |
| 2026-05-05 23:29 | 53.50025 | -113.37377 | 7475 ft | 264 kts | 32° |
| 2026-05-05 23:29 | 53.51570 | -113.35683 | 8196 ft | 265 kts | 26° |
| 2026-05-05 23:29 | 53.53319 | -113.34856 | 8887 ft | 266 kts | 0° |
| 2026-05-05 23:29 | 53.55098 | -113.35477 | 9604 ft | 268 kts | 334° |
| 2026-05-05 23:30 | 53.56540 | -113.37451 | 10334 ft | 273 kts | 309° |
| 2026-05-05 23:30 | 53.57305 | -113.40379 | 11071 ft | 282 kts | 284° |
| 2026-05-05 23:30 | 53.57227 | -113.43669 | 11797 ft | 298 kts | 260° |
| 2026-05-05 23:30 | 53.56271 | -113.46848 | 12571 ft | 324 kts | 235° |
| 2026-05-05 23:31 | 53.54525 | -113.49491 | 13487 ft | 352 kts | 221° |
| 2026-05-05 23:31 | 53.52556 | -113.52052 | 14446 ft | 368 kts | 225° |
| 2026-05-05 23:31 | 53.50650 | -113.54832 | 15336 ft | 365 kts | 228° |
| 2026-05-05 23:31 | 53.48779 | -113.57683 | 15951 ft | 367 kts | 230° |
| 2026-05-05 23:32 | 53.46909 | -113.60630 | 16447 ft | 372 kts | 231° |
| 2026-05-05 23:32 | 53.45018 | -113.63659 | 17007 ft | 385 kts | 231° |
| 2026-05-05 23:32 | 53.43079 | -113.66783 | 17677 ft | 398 kts | 230° |
| 2026-05-05 23:32 | 53.41089 | -113.70033 | 18334 ft | 405 kts | 231° |
| 2026-05-05 23:33 | 53.39041 | -113.73365 | 18979 ft | 408 kts | 231° |
| 2026-05-05 23:33 | 53.37044 | -113.76647 | 19544 ft | 408 kts | 231° |
| 2026-05-05 23:33 | 53.35011 | -113.79979 | 20074 ft | 411 kts | 231° |
| 2026-05-05 23:33 | 53.32975 | -113.83321 | 20538 ft | 420 kts | 231° |
| 2026-05-05 23:34 | 53.30859 | -113.86791 | 21292 ft | 429 kts | 231° |
| 2026-05-05 23:34 | 53.28722 | -113.90255 | 22249 ft | 431 kts | 231° |
| 2026-05-05 23:34 | 53.26588 | -113.93739 | 23115 ft | 433 kts | 232° |
| 2026-05-05 23:34 | 53.24440 | -113.97241 | 23896 ft | 436 kts | 232° |
| 2026-05-05 23:35 | 53.22290 | -114.00745 | 24691 ft | 438 kts | 232° |
| 2026-05-05 23:35 | 53.20097 | -114.04311 | 25378 ft | 443 kts | 232° |
| 2026-05-05 23:35 | 53.17907 | -114.07857 | 26032 ft | 448 kts | 232° |
| 2026-05-05 23:35 | 53.15661 | -114.11517 | 26657 ft | 452 kts | 232° |
| 2026-05-05 23:36 | 53.13434 | -114.15126 | 27290 ft | 456 kts | 233° |
| 2026-05-05 23:36 | 53.11139 | -114.18854 | 27824 ft | 462 kts | 233° |
| 2026-05-05 23:36 | 53.08834 | -114.22594 | 28368 ft | 467 kts | 233° |
| 2026-05-05 23:36 | 53.06526 | -114.26372 | 28846 ft | 473 kts | 233° |
| 2026-05-05 23:37 | 53.04152 | -114.30210 | 29337 ft | 479 kts | 233° |
| 2026-05-05 23:37 | 53.01730 | -114.34044 | 29854 ft | 483 kts | 232° |
| 2026-05-05 23:37 | 52.99316 | -114.37826 | 30368 ft | 487 kts | 232° |
| 2026-05-05 23:37 | 52.96720 | -114.41483 | 30851 ft | 495 kts | 228° |
| 2026-05-05 23:38 | 52.94337 | -114.45442 | 31252 ft | 481 kts | 243° |
| 2026-05-05 23:38 | 52.92709 | -114.50112 | 31711 ft | 464 kts | 257° |
| 2026-05-05 23:38 | 52.91310 | -114.54989 | 32222 ft | 471 kts | 253° |
| 2026-05-05 23:38 | 52.89680 | -114.59713 | 32640 ft | 479 kts | 250° |
| 2026-05-05 23:39 | 52.87922 | -114.64432 | 33039 ft | 484 kts | 248° |
| 2026-05-05 23:39 | 52.86133 | -114.69091 | 33371 ft | 488 kts | 248° |
| 2026-05-05 23:39 | 52.84283 | -114.73776 | 33711 ft | 493 kts | 246° |
| 2026-05-05 23:39 | 52.82380 | -114.78508 | 34071 ft | 495 kts | 246° |
| 2026-05-05 23:40 | 52.80465 | -114.83239 | 34401 ft | 498 kts | 246° |
| 2026-05-05 23:40 | 52.78519 | -114.87968 | 34709 ft | 500 kts | 246° |
| 2026-05-05 23:40 | 52.76585 | -114.92673 | 34962 ft | 503 kts | 246° |
| 2026-05-05 23:40 | 52.74616 | -114.97438 | 35211 ft | 506 kts | 246° |
| 2026-05-05 23:41 | 52.72635 | -115.02195 | 35436 ft | 508 kts | 245° |
| 2026-05-05 23:41 | 52.70644 | -115.06992 | 35636 ft | 511 kts | 245° |
| 2026-05-05 23:41 | 52.68602 | -115.11890 | 35782 ft | 515 kts | 245° |
| 2026-05-05 23:41 | 52.66599 | -115.16692 | 35903 ft | 511 kts | 245° |
| 2026-05-05 23:42 | 52.62612 | -115.26160 | 36006 ft | 502 kts | 245° |
| 2026-05-05 23:42 | 52.58594 | -115.35733 | 36091 ft | 519 kts | 245° |
| 2026-05-05 23:43 | 52.54427 | -115.45557 | 36123 ft | 532 kts | 245° |
| 2026-05-05 23:43 | 52.50161 | -115.55572 | 36099 ft | 537 kts | 245° |
| 2026-05-05 23:44 | 52.45893 | -115.65565 | 36072 ft | 536 kts | 244° |
| 2026-05-05 23:44 | 52.41633 | -115.75517 | 36062 ft | 536 kts | 243° |
| 2026-05-05 23:45 | 52.37351 | -115.85486 | 36063 ft | 536 kts | 243° |
| 2026-05-05 23:45 | 52.33072 | -115.95394 | 36060 ft | 535 kts | 243° |
| 2026-05-05 23:46 | 52.28797 | -116.05266 | 36064 ft | 535 kts | 243° |
| 2026-05-05 23:46 | 52.24519 | -116.15113 | 36073 ft | 534 kts | 243° |
| 2026-05-05 23:47 | 52.20206 | -116.24976 | 36073 ft | 533 kts | 243° |
| 2026-05-05 23:47 | 52.15933 | -116.34721 | 36076 ft | 533 kts | 243° |
| 2026-05-05 23:48 | 52.11648 | -116.44470 | 36401 ft | 533 kts | 243° |
| 2026-05-05 23:48 | 52.09475 | -116.49392 | 36258 ft | 531 kts | 243° |
| 2026-05-05 23:48 | 52.07328 | -116.54245 | 36142 ft | 529 kts | 243° |
| 2026-05-05 23:49 | 52.03069 | -116.63859 | 36084 ft | 527 kts | 243° |
| 2026-05-05 23:49 | 51.98786 | -116.73508 | 36103 ft | 530 kts | 242° |
| 2026-05-05 23:50 | 51.94480 | -116.83139 | 36102 ft | 529 kts | 242° |
| 2026-05-05 23:50 | 51.90178 | -116.92753 | 36094 ft | 530 kts | 242° |
| 2026-05-05 23:51 | 51.85870 | -117.02342 | 36068 ft | 531 kts | 242° |
| 2026-05-05 23:51 | 51.81530 | -117.11944 | 36089 ft | 530 kts | 242° |
| 2026-05-05 23:52 | 51.77215 | -117.21482 | 36091 ft | 526 kts | 242° |
| 2026-05-05 23:52 | 51.72880 | -117.30969 | 36086 ft | 528 kts | 241° |
| 2026-05-05 23:53 | 51.68536 | -117.40463 | 36084 ft | 528 kts | 242° |
| 2026-05-05 23:53 | 51.64207 | -117.49921 | 36082 ft | 528 kts | 242° |
| 2026-05-05 23:54 | 51.59841 | -117.59430 | 36058 ft | 527 kts | 242° |
| 2026-05-05 23:54 | 51.55490 | -117.68860 | 36067 ft | 528 kts | 241° |
| 2026-05-05 23:55 | 51.51115 | -117.78306 | 36060 ft | 530 kts | 240° |
| 2026-05-05 23:55 | 51.46715 | -117.87765 | 36054 ft | 530 kts | 240° |
| 2026-05-05 23:56 | 51.42308 | -117.97208 | 36043 ft | 529 kts | 240° |
| 2026-05-05 23:56 | 51.37929 | -118.06554 | 36043 ft | 527 kts | 240° |
| 2026-05-05 23:57 | 51.33543 | -118.15881 | 36054 ft | 527 kts | 240° |
| 2026-05-05 23:57 | 51.29154 | -118.25195 | 36042 ft | 528 kts | 240° |
| 2026-05-05 23:58 | 51.24744 | -118.34497 | 36024 ft | 527 kts | 240° |
| 2026-05-05 23:58 | 51.20338 | -118.43764 | 36035 ft | 526 kts | 240° |
| 2026-05-05 23:59 | 51.15909 | -118.53069 | 36030 ft | 526 kts | 240° |
| 2026-05-05 23:59 | 51.11470 | -118.62324 | 36029 ft | 527 kts | 240° |
| 2026-05-06 00:00 | 51.07029 | -118.71563 | 36014 ft | 527 kts | 239° |
| 2026-05-06 00:00 | 51.02554 | -118.80848 | 35985 ft | 525 kts | 239° |
| 2026-05-06 00:01 | 50.98094 | -118.90073 | 35957 ft | 526 kts | 239° |
| 2026-05-06 00:01 | 50.93626 | -118.99268 | 35937 ft | 525 kts | 238° |
| 2026-05-06 00:02 | 50.89168 | -119.08405 | 35926 ft | 524 kts | 238° |
| 2026-05-06 00:02 | 50.84711 | -119.17511 | 35935 ft | 522 kts | 238° |
| 2026-05-06 00:03 | 50.80274 | -119.26557 | 35954 ft | 522 kts | 238° |
| 2026-05-06 00:03 | 50.75874 | -119.35492 | 35969 ft | 522 kts | 238° |
| 2026-05-06 00:04 | 50.71397 | -119.44555 | 35988 ft | 523 kts | 238° |
| 2026-05-06 00:04 | 50.66878 | -119.53674 | 36007 ft | 522 kts | 238° |
| 2026-05-06 00:05 | 50.60192 | -119.67092 | 35993 ft | 522 kts | 237° |
| 2026-05-06 00:06 | 50.55728 | -119.76019 | 35990 ft | 522 kts | 237° |
| 2026-05-06 00:06 | 50.51255 | -119.84939 | 36007 ft | 522 kts | 237° |
| 2026-05-06 00:07 | 50.46752 | -119.93887 | 36029 ft | 522 kts | 237° |
| 2026-05-06 00:07 | 50.42244 | -120.02816 | 36029 ft | 523 kts | 237° |
| 2026-05-06 00:08 | 50.37774 | -120.11642 | 36028 ft | 522 kts | 237° |
| 2026-05-06 00:08 | 50.33241 | -120.20543 | 36020 ft | 522 kts | 237° |
| 2026-05-06 00:09 | 50.28732 | -120.29369 | 36017 ft | 522 kts | 237° |
| 2026-05-06 00:09 | 50.24220 | -120.38174 | 36028 ft | 520 kts | 237° |
| 2026-05-06 00:10 | 50.19722 | -120.46934 | 36010 ft | 519 kts | 237° |
| 2026-05-06 00:10 | 50.15219 | -120.55662 | 36007 ft | 519 kts | 237° |
| 2026-05-06 00:11 | 50.10700 | -120.64389 | 36016 ft | 518 kts | 237° |
| 2026-05-06 00:11 | 50.06200 | -120.73067 | 36025 ft | 518 kts | 236° |
| 2026-05-06 00:12 | 50.01736 | -120.81635 | 35833 ft | 493 kts | 236° |
| 2026-05-06 00:12 | 49.99618 | -120.85698 | 35214 ft | 477 kts | 236° |
| 2026-05-06 00:12 | 49.97516 | -120.89552 | 34394 ft | 470 kts | 229° |
| 2026-05-06 00:12 | 49.94928 | -120.92619 | 33373 ft | 475 kts | 212° |
| 2026-05-06 00:13 | 49.91855 | -120.94502 | 32301 ft | 481 kts | 196° |
| 2026-05-06 00:13 | 49.88565 | -120.95019 | 31254 ft | 484 kts | 178° |
| 2026-05-06 00:13 | 49.85310 | -120.94126 | 30803 ft | 470 kts | 166° |
| 2026-05-06 00:14 | 49.78912 | -120.91939 | 30843 ft | 477 kts | 170° |
| 2026-05-06 00:14 | 49.75642 | -120.90952 | 30973 ft | 486 kts | 170° |
| 2026-05-06 00:14 | 49.72307 | -120.89979 | 31062 ft | 491 kts | 170° |
| 2026-05-06 00:15 | 49.65629 | -120.88062 | 31060 ft | 490 kts | 171° |
| 2026-05-06 00:15 | 49.58957 | -120.86164 | 31032 ft | 487 kts | 170° |
| 2026-05-06 00:16 | 49.52293 | -120.84293 | 31040 ft | 488 kts | 170° |
| 2026-05-06 00:16 | 49.45630 | -120.82426 | 31056 ft | 488 kts | 170° |
| 2026-05-06 00:17 | 49.38979 | -120.80560 | 31067 ft | 489 kts | 170° |
| 2026-05-06 00:17 | 49.32297 | -120.78712 | 31072 ft | 490 kts | 170° |
| 2026-05-06 00:18 | 49.25592 | -120.76846 | 31067 ft | 489 kts | 170° |
| 2026-05-06 00:18 | 49.18933 | -120.75004 | 31078 ft | 489 kts | 170° |
| 2026-05-06 00:19 | 49.12222 | -120.73164 | 31091 ft | 491 kts | 170° |
| 2026-05-06 00:19 | 49.08885 | -120.72551 | 31034 ft | 490 kts | 181° |
| 2026-05-06 00:19 | 49.05500 | -120.73196 | 30857 ft | 485 kts | 198° |
| 2026-05-06 00:19 | 49.02439 | -120.75046 | 30604 ft | 476 kts | 210° |
| 2026-05-06 00:20 | 48.99456 | -120.77275 | 30307 ft | 474 kts | 210° |
| 2026-05-06 00:20 | 48.96701 | -120.79845 | 29901 ft | 465 kts | 221° |
| 2026-05-06 00:20 | 48.94128 | -120.82778 | 29527 ft | 461 kts | 220° |
| 2026-05-06 00:20 | 48.91507 | -120.85497 | 29115 ft | 459 kts | 218° |
| 2026-05-06 00:21 | 48.88865 | -120.88155 | 28682 ft | 456 kts | 218° |
| 2026-05-06 00:21 | 48.86242 | -120.90843 | 28229 ft | 453 kts | 218° |
| 2026-05-06 00:21 | 48.83645 | -120.93449 | 27795 ft | 450 kts | 218° |
| 2026-05-06 00:21 | 48.81041 | -120.96081 | 27355 ft | 447 kts | 218° |
| 2026-05-06 00:22 | 48.78512 | -120.98674 | 26929 ft | 444 kts | 218° |
| 2026-05-06 00:22 | 48.75922 | -121.01290 | 26491 ft | 442 kts | 218° |
| 2026-05-06 00:22 | 48.73384 | -121.03861 | 26060 ft | 439 kts | 218° |
| 2026-05-06 00:22 | 48.70864 | -121.06408 | 25628 ft | 437 kts | 218° |
| 2026-05-06 00:23 | 48.68361 | -121.08951 | 25195 ft | 435 kts | 218° |
| 2026-05-06 00:23 | 48.65859 | -121.11469 | 24761 ft | 433 kts | 218° |
| 2026-05-06 00:23 | 48.63388 | -121.13950 | 24322 ft | 431 kts | 218° |
| 2026-05-06 00:23 | 48.60901 | -121.16442 | 23873 ft | 429 kts | 218° |
| 2026-05-06 00:24 | 48.58365 | -121.18758 | 23384 ft | 431 kts | 208° |
| 2026-05-06 00:24 | 48.55497 | -121.20185 | 22908 ft | 426 kts | 198° |
| 2026-05-06 00:24 | 48.52706 | -121.21306 | 22443 ft | 415 kts | 199° |
| 2026-05-06 00:24 | 48.49958 | -121.22493 | 21984 ft | 412 kts | 199° |
| 2026-05-06 00:25 | 48.47178 | -121.23643 | 21527 ft | 410 kts | 198° |
| 2026-05-06 00:25 | 48.44457 | -121.24775 | 21068 ft | 403 kts | 198° |
| 2026-05-06 00:25 | 48.41770 | -121.25880 | 20628 ft | 403 kts | 198° |
| 2026-05-06 00:25 | 48.39060 | -121.26987 | 20179 ft | 402 kts | 198° |
| 2026-05-06 00:26 | 48.36406 | -121.28072 | 19735 ft | 395 kts | 198° |
| 2026-05-06 00:26 | 48.33795 | -121.29146 | 19319 ft | 392 kts | 198° |
| 2026-05-06 00:26 | 48.31178 | -121.30210 | 18890 ft | 390 kts | 198° |
| 2026-05-06 00:26 | 48.28551 | -121.31274 | 18470 ft | 388 kts | 198° |
| 2026-05-06 00:27 | 48.25964 | -121.32312 | 18055 ft | 386 kts | 198° |
| 2026-05-06 00:27 | 48.23385 | -121.33257 | 17618 ft | 385 kts | 190° |
| 2026-05-06 00:27 | 48.20730 | -121.33205 | 17167 ft | 385 kts | 169° |
| 2026-05-06 00:27 | 48.18138 | -121.32252 | 16777 ft | 379 kts | 165° |
| 2026-05-06 00:28 | 48.15613 | -121.31286 | 16390 ft | 378 kts | 166° |
| 2026-05-06 00:28 | 48.13085 | -121.30332 | 16001 ft | 376 kts | 165° |
| 2026-05-06 00:28 | 48.10572 | -121.29356 | 15622 ft | 371 kts | 165° |
| 2026-05-06 00:28 | 48.08112 | -121.28386 | 15287 ft | 368 kts | 165° |
| 2026-05-06 00:29 | 48.05630 | -121.27402 | 14953 ft | 366 kts | 165° |
| 2026-05-06 00:29 | 48.03178 | -121.26423 | 14626 ft | 365 kts | 165° |
| 2026-05-06 00:29 | 48.00733 | -121.25446 | 14342 ft | 364 kts | 165° |
| 2026-05-06 00:29 | 47.98308 | -121.24465 | 14044 ft | 362 kts | 164° |
| 2026-05-06 00:30 | 47.95893 | -121.23494 | 13752 ft | 360 kts | 164° |
| 2026-05-06 00:30 | 47.93487 | -121.22526 | 13418 ft | 357 kts | 164° |
| 2026-05-06 00:30 | 47.91095 | -121.21562 | 13109 ft | 355 kts | 164° |
| 2026-05-06 00:30 | 47.88712 | -121.20821 | 12763 ft | 348 kts | 178° |
| 2026-05-06 00:31 | 47.86371 | -121.21267 | 12385 ft | 335 kts | 201° |
| 2026-05-06 00:31 | 47.84396 | -121.22938 | 12034 ft | 320 kts | 225° |
| 2026-05-06 00:31 | 47.83113 | -121.25453 | 11694 ft | 303 kts | 250° |
| 2026-05-06 00:31 | 47.82663 | -121.28443 | 11377 ft | 291 kts | 275° |
| 2026-05-06 00:32 | 47.83105 | -121.31273 | 11129 ft | 285 kts | 298° |
| 2026-05-06 00:32 | 47.83991 | -121.33895 | 11007 ft | 284 kts | 297° |
| 2026-05-06 00:32 | 47.84722 | -121.36674 | 10955 ft | 286 kts | 291° |
| 2026-05-06 00:32 | 47.85311 | -121.39489 | 10955 ft | 288 kts | 289° |
| 2026-05-06 00:33 | 47.85814 | -121.42370 | 10977 ft | 290 kts | 286° |
| 2026-05-06 00:33 | 47.86248 | -121.45282 | 11002 ft | 291 kts | 285° |
| 2026-05-06 00:33 | 47.86609 | -121.48256 | 10998 ft | 292 kts | 281° |
| 2026-05-06 00:33 | 47.86871 | -121.51273 | 10990 ft | 292 kts | 281° |
| 2026-05-06 00:34 | 47.87152 | -121.54237 | 10992 ft | 292 kts | 281° |
| 2026-05-06 00:34 | 47.87425 | -121.57209 | 10966 ft | 291 kts | 281° |
| 2026-05-06 00:34 | 47.87698 | -121.60174 | 10954 ft | 290 kts | 281° |
| 2026-05-06 00:34 | 47.87976 | -121.63144 | 10957 ft | 290 kts | 281° |
| 2026-05-06 00:35 | 47.88246 | -121.66148 | 10954 ft | 291 kts | 278° |
| 2026-05-06 00:35 | 47.88061 | -121.69145 | 10897 ft | 297 kts | 253° |
| 2026-05-06 00:35 | 47.87037 | -121.71778 | 10893 ft | 303 kts | 229° |
| 2026-05-06 00:35 | 47.85505 | -121.73943 | 10946 ft | 304 kts | 225° |
| 2026-05-06 00:36 | 47.83956 | -121.76121 | 10995 ft | 305 kts | 227° |
| 2026-05-06 00:36 | 47.82446 | -121.78301 | 11003 ft | 306 kts | 227° |
| 2026-05-06 00:36 | 47.80917 | -121.80504 | 10982 ft | 306 kts | 227° |
| 2026-05-06 00:36 | 47.79378 | -121.82715 | 10976 ft | 306 kts | 227° |
| 2026-05-06 00:37 | 47.77855 | -121.84914 | 10967 ft | 306 kts | 227° |
| 2026-05-06 00:37 | 47.76328 | -121.87093 | 10931 ft | 301 kts | 225° |
| 2026-05-06 00:37 | 47.74803 | -121.89130 | 10909 ft | 296 kts | 225° |
| 2026-05-06 00:37 | 47.73277 | -121.91187 | 10912 ft | 294 kts | 225° |
| 2026-05-06 00:38 | 47.71773 | -121.93218 | 10958 ft | 293 kts | 225° |
| 2026-05-06 00:38 | 47.70265 | -121.95248 | 10945 ft | 294 kts | 225° |
| 2026-05-06 00:38 | 47.68751 | -121.97276 | 10947 ft | 293 kts | 225° |
| 2026-05-06 00:38 | 47.67233 | -121.99315 | 10946 ft | 293 kts | 225° |
| 2026-05-06 00:39 | 47.65737 | -122.01325 | 10946 ft | 293 kts | 225° |
| 2026-05-06 00:39 | 47.64231 | -122.03350 | 10943 ft | 293 kts | 225° |
| 2026-05-06 00:39 | 47.62718 | -122.05373 | 10950 ft | 294 kts | 225° |
| 2026-05-06 00:39 | 47.61195 | -122.07413 | 10954 ft | 294 kts | 225° |
| 2026-05-06 00:40 | 47.59682 | -122.09441 | 10957 ft | 294 kts | 225° |
| 2026-05-06 00:40 | 47.58169 | -122.11464 | 10955 ft | 294 kts | 225° |
| 2026-05-06 00:40 | 47.56788 | -122.13680 | 10907 ft | 291 kts | 243° |
| 2026-05-06 00:40 | 47.56139 | -122.16441 | 10860 ft | 284 kts | 268° |
| 2026-05-06 00:41 | 47.56340 | -122.19289 | 10580 ft | 282 kts | 292° |
| 2026-05-06 00:41 | 47.57320 | -122.21759 | 10127 ft | 276 kts | 309° |
| 2026-05-06 00:41 | 47.58432 | -122.24073 | 9656 ft | 276 kts | 306° |
| 2026-05-06 00:41 | 47.59516 | -122.26328 | 9266 ft | 271 kts | 310° |
| 2026-05-06 00:42 | 47.60708 | -122.28482 | 8870 ft | 268 kts | 311° |
| 2026-05-06 00:42 | 47.61998 | -122.30422 | 8458 ft | 264 kts | 322° |
| 2026-05-06 00:42 | 47.63481 | -122.31992 | 8140 ft | 256 kts | 328° |
| 2026-05-06 00:42 | 47.64919 | -122.33409 | 7870 ft | 246 kts | 327° |
| 2026-05-06 00:43 | 47.66415 | -122.34580 | 7448 ft | 241 kts | 338° |
| 2026-05-06 00:43 | 47.67939 | -122.35486 | 7179 ft | 233 kts | 338° |
| 2026-05-06 00:43 | 47.69393 | -122.36377 | 6909 ft | 226 kts | 338° |
| 2026-05-06 00:43 | 47.70829 | -122.37243 | 6635 ft | 220 kts | 338° |
| 2026-05-06 00:44 | 47.72239 | -122.38092 | 6362 ft | 214 kts | 338° |
| 2026-05-06 00:44 | 47.73596 | -122.38907 | 6092 ft | 209 kts | 338° |
| 2026-05-06 00:44 | 47.74850 | -122.39875 | 5842 ft | 200 kts | 318° |
| 2026-05-06 00:44 | 47.75544 | -122.41623 | 5427 ft | 203 kts | 283° |
| 2026-05-06 00:45 | 47.75415 | -122.43694 | 4973 ft | 209 kts | 248° |
| 2026-05-06 00:45 | 47.74480 | -122.45328 | 4542 ft | 214 kts | 213° |
| 2026-05-06 00:45 | 47.73060 | -122.45911 | 4106 ft | 217 kts | 178° |
| 2026-05-06 00:45 | 47.71612 | -122.45323 | 3711 ft | 215 kts | 157° |
| 2026-05-06 00:46 | 47.70248 | -122.44477 | 3304 ft | 217 kts | 159° |
| 2026-05-06 00:46 | 47.68811 | -122.43687 | 2854 ft | 219 kts | 160° |
| 2026-05-06 00:46 | 47.67443 | -122.42717 | 2416 ft | 220 kts | 149° |
| 2026-05-06 00:46 | 47.66156 | -122.41542 | 1999 ft | 220 kts | 149° |
| 2026-05-06 00:47 | 47.64854 | -122.40409 | 1712 ft | 214 kts | 149° |
| 2026-05-06 00:47 | 47.63600 | -122.39296 | 1560 ft | 202 kts | 150° |
| 2026-05-06 00:47 | 47.62435 | -122.38272 | 1462 ft | 192 kts | 150° |
| 2026-05-06 00:47 | 47.61269 | -122.37280 | 1469 ft | 193 kts | 154° |
| 2026-05-06 00:48 | 47.60060 | -122.36428 | 1558 ft | 191 kts | 155° |
| 2026-05-06 00:48 | 47.58852 | -122.35626 | 1394 ft | 189 kts | 154° |
| 2026-05-06 00:48 | 47.57739 | -122.34682 | 1157 ft | 175 kts | 149° |
| 2026-05-06 00:48 | 47.56781 | -122.33724 | 912 ft | 163 kts | 146° |
| 2026-05-06 00:49 | 47.55876 | -122.32767 | 539 ft | 157 kts | 146° |
| 2026-05-06 00:49 | 47.54998 | -122.31916 | 234 ft | 146 kts | 153° |
| 2026-05-06 00:49 | 47.54134 | -122.31207 | 43 ft | 136 kts | 152° |
| 2026-05-06 00:49 | 47.53378 | -122.30562 | 27 ft | 108 kts | 152° |
| 2026-05-06 00:50 | 47.52921 | -122.30182 | 25 ft | 49 kts | 150° |
| 2026-05-06 00:50 | 47.52697 | -122.30006 | 27 ft | 12 kts | 178° |
| 2026-05-06 00:50 | 47.52679 | -122.30026 | 27 ft | 6 kts | 234° |
| 2026-05-06 00:50 | 47.52668 | -122.30106 | 25 ft | 9 kts | 312° |
| 2026-05-06 00:51 | 47.52721 | -122.30159 | 24 ft | 9 kts | 330° |
| 2026-05-06 00:51 | 47.52774 | -122.30205 | 24 ft | 10 kts | 329° |
| 2026-05-06 00:51 | 47.52865 | -122.30283 | 24 ft | 20 kts | 330° |
| 2026-05-06 00:51 | 47.53016 | -122.30416 | 24 ft | 29 kts | 330° |
| 2026-05-06 00:52 | 47.53193 | -122.30564 | 24 ft | 28 kts | 331° |
| 2026-05-06 00:52 | 47.53357 | -122.30699 | 24 ft | 26 kts | 330° |
| 2026-05-06 00:52 | 47.53510 | -122.30827 | 24 ft | 24 kts | 332° |
| 2026-05-06 00:52 | 47.53650 | -122.30944 | 25 ft | 22 kts | 331° |
| 2026-05-06 00:53 | 47.53778 | -122.31052 | 25 ft | 20 kts | 330° |
| 2026-05-06 00:53 | 47.53891 | -122.31150 | 25 ft | 18 kts | 330° |
| 2026-05-06 00:53 | 47.53972 | -122.31242 | 27 ft | 11 kts | 275° |
| 2026-05-06 00:53 | 47.53944 | -122.31337 | 26 ft | 9 kts | 242° |
| 2026-05-06 00:54 | 47.53942 | -122.31420 | 24 ft | 8 kts | 298° |
| 2026-05-06 00:54 | 47.53956 | -122.31494 | 24 ft | 6 kts | 271° |
| 2026-05-06 00:54 | 47.53956 | -122.31541 | 24 ft | 0 kts | 269° |
| 2026-05-06 00:56 | 47.53956 | -122.31536 | 24 ft | 0 kts | 252° |
| 2026-05-06 00:57 | 47.53961 | -122.31520 | 24 ft | 1 kts | 253° |
| 2026-05-06 00:57 | 47.53964 | -122.31499 | 24 ft | 2 kts | 236° |
| 2026-05-06 00:57 | 47.53975 | -122.31486 | 24 ft | 2 kts | 192° |
| 2026-05-06 00:57 | 47.53990 | -122.31486 | 24 ft | 2 kts | 177° |
| 2026-05-06 00:58 | 47.54005 | -122.31486 | 24 ft | 2 kts | 183° |
| 2026-05-06 00:58 | 47.54008 | -122.31486 | 24 ft | 0 kts | 183° |